Main page
METAR-TAF:

METAR-TAF

Airports :

El Borma Airport

El Borma, Tunisia

latitude: 31-41N, longitude: 009-10E, elevation: 258 m

Current weather observation

The report was made 21 minutes ago, at 06:00 UTC
Wind 8 kt from the East/Northeast
Temperature 26°C
Humidity 54%
Pressure 1016 hPa
Visibility 10 km or more
no clouds below 1500 m and no cumulonimbus

METAR: DTTR 130600Z 06008KT CAVOK 26/16 Q1016

Time: 07:21 (06:21 UTC)

Forecast

The report was made 3 hours and 21 minutes ago, at 03:00 UTC
Forecast valid from 13 at 04 UTC to 13 at 13 UTC
Wind 4 kt from the East/Northeast
Visibility 10 km or more
no clouds below 1500 m and no cumulonimbus

TAF: DTTR 130300Z 1304/1313 06004KT CAVOK

Weather observations and forecasts of more than 4000 airports (METAR and TAF reports).

The available stations are represented by yellow and red dots on the map.

Hover mouse over dot to see the name of the station.

Then click to see weather observations and forecasts.

To change the map : click on the green buttons with a black cross to zoom in, on the green button with a dash to zoom out, or on the green arrows for adjacent maps.


METAR-TAF: